createdAt,value
2022-08-25T00:02:03.020Z,49.88
2022-08-25T00:04:30.275Z,49.83
2022-08-25T00:07:02.143Z,49.94
2022-08-25T00:09:30.677Z,49.76
2022-08-25T00:11:57.484Z,49.64
2022-08-25T00:14:37.153Z,49.51
2022-08-25T00:17:04.780Z,49.45
2022-08-25T00:19:35.002Z,49.68
2022-08-25T00:22:02.690Z,49.54
2022-08-25T00:24:29.943Z,49.79
2022-08-25T00:26:58.769Z,49.94
2022-08-25T00:29:26.799Z,50.13
2022-08-25T00:31:55.057Z,50.21
2022-08-25T00:34:30.137Z,50.09
2022-08-25T00:36:57.016Z,49.86
2022-08-25T00:39:24.964Z,49.78
2022-08-25T00:41:53.966Z,50.34
2022-08-25T00:44:20.798Z,50.34
2022-08-25T00:46:54.551Z,50.35
2022-08-25T00:49:28.359Z,50.44
2022-08-25T00:52:25.866Z,50.24
2022-08-25T00:55:03.017Z,50.42
2022-08-25T00:57:37.830Z,50.43
2022-08-25T01:00:14.475Z,50.23
2022-08-25T01:02:41.606Z,50.43
2022-08-25T01:05:08.822Z,50.36
2022-08-25T01:07:36.513Z,50.57
2022-08-25T01:10:04.832Z,50.62
2022-08-25T01:12:31.466Z,50.85
2022-08-25T01:14:58.802Z,50.90
2022-08-25T01:17:28.167Z,50.85
2022-08-25T01:19:55.873Z,51.32
2022-08-25T01:22:22.858Z,51.04
2022-08-25T01:25:27.747Z,51.08
2022-08-25T01:27:54.306Z,51.07
2022-08-25T01:30:21.766Z,51.43
2022-08-25T01:32:48.860Z,51.72
2022-08-25T01:35:15.885Z,51.96
2022-08-25T01:37:42.639Z,52.07
2022-08-25T01:40:09.775Z,52.00
2022-08-25T01:43:07.749Z,51.58
2022-08-25T01:45:35.551Z,51.77
2022-08-25T01:48:02.661Z,51.80
2022-08-25T01:50:29.538Z,51.98
2022-08-25T01:53:19.495Z,52.12
2022-08-25T01:55:51.966Z,52.36
2022-08-25T01:58:40.405Z,52.63
2022-08-25T02:01:10.132Z,52.60
2022-08-25T02:03:42.296Z,52.90
2022-08-25T02:06:12.427Z,53.10
2022-08-25T02:08:39.873Z,53.30
2022-08-25T02:11:11.921Z,53.40
2022-08-25T02:13:40.418Z,53.47
2022-08-25T02:16:08.435Z,53.33
2022-08-25T02:18:35.145Z,53.54
2022-08-25T02:21:02.248Z,52.92
2022-08-25T02:23:28.888Z,53.11
2022-08-25T02:25:57.245Z,52.90
2022-08-25T02:28:24.316Z,53.02
2022-08-25T02:30:53.225Z,52.92
2022-08-25T02:33:26.926Z,52.64
2022-08-25T02:35:57.919Z,52.70
2022-08-25T02:38:25.092Z,52.27
2022-08-25T02:40:52.351Z,52.79
2022-08-25T02:43:19.015Z,52.75
2022-08-25T02:45:45.698Z,52.76
2022-08-25T02:48:12.318Z,52.75
2022-08-25T02:50:39.062Z,52.56
2022-08-25T02:53:05.752Z,52.97
2022-08-25T02:55:34.665Z,53.29
2022-08-25T02:58:01.284Z,53.66
2022-08-25T03:00:27.901Z,53.93
2022-08-25T03:02:54.503Z,54.28
2022-08-25T03:05:21.379Z,54.48
2022-08-25T03:07:48.213Z,54.20
2022-08-25T03:10:18.839Z,54.27
2022-08-25T03:12:45.739Z,54.39
2022-08-25T03:15:18.683Z,54.79
2022-08-25T03:17:46.202Z,54.98
2022-08-25T03:20:13.372Z,55.14
2022-08-25T03:22:40.081Z,55.37
2022-08-25T03:25:25.725Z,55.13
2022-08-25T03:27:52.528Z,55.58
2022-08-25T03:30:20.069Z,55.68
2022-08-25T03:32:46.841Z,55.92
2022-08-25T03:35:13.613Z,56.24
2022-08-25T03:37:40.798Z,56.44
2022-08-25T03:40:13.605Z,56.59
2022-08-25T03:42:45.155Z,56.54
2022-08-25T03:45:14.252Z,56.15
2022-08-25T03:47:41.213Z,55.99
2022-08-25T03:50:10.403Z,55.73
2022-08-25T03:52:42.392Z,55.44
2022-08-25T03:55:11.875Z,55.44
2022-08-25T03:57:38.617Z,55.68
2022-08-25T04:00:08.172Z,55.50
2022-08-25T04:02:34.877Z,55.96
2022-08-25T04:05:01.742Z,56.49
2022-08-25T04:07:28.352Z,55.83
2022-08-25T04:09:56.166Z,55.57
2022-08-25T04:12:23.241Z,55.83
2022-08-25T04:14:50.335Z,55.81
2022-08-25T04:17:17.556Z,56.31
2022-08-25T04:19:44.341Z,56.22
2022-08-25T04:22:11.266Z,56.30
2022-08-25T04:24:39.956Z,55.79
2022-08-25T04:27:06.535Z,55.51
2022-08-25T04:29:33.942Z,55.74
2022-08-25T04:32:00.610Z,55.08
2022-08-25T04:34:30.296Z,54.67
2022-08-25T04:37:03.379Z,54.68
2022-08-25T04:39:29.978Z,54.61
2022-08-25T04:41:56.682Z,54.31
2022-08-25T04:44:23.619Z,54.61
2022-08-25T04:46:50.324Z,54.47
2022-08-25T04:49:16.978Z,54.78
2022-08-25T04:51:43.740Z,54.70
2022-08-25T04:54:13.814Z,53.63
2022-08-25T04:56:41.497Z,53.79
2022-08-25T04:59:11.836Z,54.30
2022-08-25T05:01:39.810Z,54.68
2022-08-25T05:04:08.847Z,54.43
2022-08-25T05:06:41.919Z,54.03
2022-08-25T05:09:09.998Z,54.17
2022-08-25T05:11:37.399Z,54.39
2022-08-25T05:14:04.710Z,54.50
2022-08-25T05:16:31.713Z,54.72
2022-08-25T05:18:58.507Z,54.80
2022-08-25T05:21:28.733Z,55.07
2022-08-25T05:23:57.735Z,54.51
2022-08-25T05:26:26.428Z,54.27
2022-08-25T05:28:55.069Z,54.33
2022-08-25T05:31:23.820Z,54.48
2022-08-25T05:33:51.063Z,54.69
2022-08-25T05:36:20.145Z,53.51
2022-08-25T05:38:47.327Z,54.21
2022-08-25T05:41:16.849Z,54.33
2022-08-25T05:43:45.910Z,53.79
2022-08-25T05:46:13.317Z,53.86
2022-08-25T05:48:40.320Z,53.82
2022-08-25T05:51:10.343Z,54.37
2022-08-25T05:53:39.215Z,53.78
2022-08-25T05:56:06.150Z,53.03
2022-08-25T05:58:32.882Z,53.43
2022-08-25T06:01:19.629Z,53.58
2022-08-25T06:03:47.638Z,53.70
2022-08-25T06:06:15.982Z,53.79
2022-08-25T06:08:44.281Z,54.10
2022-08-25T06:11:12.699Z,53.34
2022-08-25T06:13:39.971Z,53.37
2022-08-25T06:16:07.205Z,52.89
2022-08-25T06:18:33.909Z,52.51
2022-08-25T06:21:08.387Z,52.06
2022-08-25T06:23:35.027Z,51.01
2022-08-25T06:26:01.986Z,51.31
2022-08-25T06:28:28.641Z,51.31
2022-08-25T06:31:00.107Z,51.33
2022-08-25T06:33:26.706Z,51.28
2022-08-25T06:35:56.023Z,51.59
2022-08-25T06:38:23.872Z,51.74
2022-08-25T06:40:52.065Z,52.09
2022-08-25T06:43:22.133Z,51.08
2022-08-25T06:45:48.827Z,50.92
2022-08-25T06:48:15.941Z,51.64
2022-08-25T06:50:43.386Z,51.21
2022-08-25T06:53:10.046Z,51.34
2022-08-25T06:55:36.959Z,50.96
2022-08-25T06:58:05.211Z,50.72
2022-08-25T07:00:33.420Z,50.67
2022-08-25T07:03:01.489Z,50.85
2022-08-25T07:05:40.810Z,51.55
2022-08-25T07:08:11.879Z,50.37
2022-08-25T07:10:39.009Z,49.95
2022-08-25T07:13:05.682Z,49.61
2022-08-25T07:15:32.309Z,49.31
2022-08-25T07:17:59.112Z,49.40
2022-08-25T07:22:53.149Z,49.09
2022-08-25T07:25:19.890Z,48.66
2022-08-25T07:27:46.595Z,48.25
2022-08-25T07:30:13.480Z,48.36
2022-08-25T07:32:43.015Z,48.41
2022-08-25T07:35:18.958Z,48.54
2022-08-25T07:37:58.177Z,48.42
2022-08-25T07:40:31.803Z,48.66
2022-08-25T07:43:01.693Z,48.29
2022-08-25T07:45:31.644Z,47.83
2022-08-25T07:48:01.094Z,47.77
2022-08-25T07:50:29.384Z,48.46
2022-08-25T07:52:57.856Z,49.42
2022-08-25T07:55:27.218Z,49.18
2022-08-25T07:57:57.238Z,48.46
2022-08-25T08:00:27.791Z,48.54
2022-08-25T08:02:54.916Z,48.62
2022-08-25T08:05:24.017Z,48.10
2022-08-25T08:07:51.598Z,48.35
2022-08-25T08:10:47.893Z,48.02
2022-08-25T08:13:07.565Z,48.50
2022-08-25T08:15:35.500Z,48.17
2022-08-25T08:18:03.169Z,48.08
2022-08-25T08:20:42.706Z,48.06
2022-08-25T08:23:11.165Z,47.98
2022-08-25T08:25:37.904Z,48.40
2022-08-25T08:28:04.570Z,48.69
2022-08-25T08:30:36.592Z,48.71
2022-08-25T08:33:10.026Z,48.72
2022-08-25T08:35:38.586Z,49.05
2022-08-25T08:38:13.135Z,48.97
2022-08-25T08:41:13.802Z,48.88
2022-08-25T08:43:43.076Z,49.29
2022-08-25T08:46:10.015Z,50.29
2022-08-25T08:48:59.068Z,50.79
2022-08-25T08:51:36.611Z,50.70
2022-08-25T08:54:20.523Z,50.80
2022-08-25T08:56:55.243Z,50.05
2022-08-25T08:59:30.040Z,50.28
2022-08-25T09:02:04.064Z,50.07
2022-08-25T09:04:57.999Z,49.76
2022-08-25T09:07:32.956Z,50.12
2022-08-25T09:09:59.811Z,49.95
2022-08-25T09:12:34.204Z,49.83
2022-08-25T09:15:00.881Z,49.65
2022-08-25T09:17:54.695Z,49.33
2022-08-25T09:20:40.486Z,49.30
2022-08-25T09:23:31.667Z,49.33
2022-08-25T09:26:27.411Z,49.07
2022-08-25T09:29:06.362Z,48.44
2022-08-25T09:31:43.339Z,47.98
2022-08-25T09:34:21.456Z,48.10
2022-08-25T09:36:52.822Z,47.69
2022-08-25T09:39:21.132Z,47.27
2022-08-25T09:41:57.396Z,47.15
2022-08-25T09:44:42.345Z,46.56
2022-08-25T09:47:18.319Z,45.93
2022-08-25T09:49:51.101Z,46.10
2022-08-25T09:52:32.820Z,45.65
2022-08-25T09:55:16.313Z,45.43
2022-08-25T09:57:42.876Z,45.34
2022-08-25T10:00:34.006Z,44.59
2022-08-25T10:03:24.842Z,44.65
2022-08-25T10:06:07.816Z,44.17
2022-08-25T10:08:45.707Z,43.78
2022-08-25T10:11:15.371Z,43.27
2022-08-25T10:14:00.667Z,42.78
2022-08-25T10:16:36.098Z,42.72
2022-08-25T10:19:08.111Z,42.38
2022-08-25T10:21:37.100Z,41.71
2022-08-25T10:24:05.965Z,41.90
2022-08-25T10:26:52.340Z,41.61
2022-08-25T10:29:45.829Z,41.03
2022-08-25T10:32:18.292Z,41.15
2022-08-25T10:34:51.451Z,40.94
2022-08-25T10:37:53.449Z,40.56
2022-08-25T10:40:45.103Z,39.83
2022-08-25T10:43:49.808Z,39.68
2022-08-25T10:46:36.785Z,39.78
2022-08-25T10:49:03.380Z,39.63
2022-08-25T10:51:41.535Z,38.55
2022-08-25T10:55:12.807Z,39.36
2022-08-25T10:57:46.520Z,39.16
2022-08-25T11:00:17.963Z,38.63
2022-08-25T11:02:47.348Z,38.45
2022-08-25T11:05:28.290Z,36.89
2022-08-25T11:08:06.752Z,36.36
2022-08-25T11:11:09.452Z,37.27
2022-08-25T11:13:47.663Z,37.33
2022-08-25T11:16:26.939Z,37.15
2022-08-25T11:19:17.084Z,37.25
2022-08-25T11:21:46.466Z,36.50
2022-08-25T11:24:16.095Z,36.00
2022-08-25T11:26:51.719Z,35.57
2022-08-25T11:29:34.191Z,35.67
2022-08-25T11:32:02.020Z,35.73
2022-08-25T11:34:33.240Z,35.88
2022-08-25T11:37:11.124Z,35.49
2022-08-25T11:40:00.253Z,35.68
2022-08-25T11:42:36.120Z,35.23
2022-08-25T11:45:28.918Z,34.81
2022-08-25T11:48:49.963Z,34.61
2022-08-25T11:51:36.514Z,34.44
2022-08-25T11:54:15.370Z,33.82
2022-08-25T11:56:42.193Z,33.85
2022-08-25T11:59:10.001Z,33.17
2022-08-25T12:01:40.517Z,33.31
2022-08-25T12:04:31.241Z,33.44
2022-08-25T12:07:07.322Z,33.70
2022-08-25T12:09:55.089Z,34.01
2022-08-25T12:12:32.529Z,34.18
2022-08-25T12:15:21.147Z,34.49
2022-08-25T12:18:10.647Z,33.93
2022-08-25T12:20:53.746Z,33.38
2022-08-25T12:23:32.376Z,32.90
2022-08-25T12:26:20.891Z,32.67
2022-08-25T12:28:59.817Z,32.78
2022-08-25T12:31:43.228Z,32.22
2022-08-25T12:34:37.643Z,32.08
2022-08-25T12:37:13.324Z,31.70
2022-08-25T12:39:51.138Z,31.33
2022-08-25T12:42:28.638Z,30.74
2022-08-25T12:45:31.424Z,30.50
2022-08-25T12:48:27.944Z,30.55
2022-08-25T12:51:03.365Z,30.03
2022-08-25T12:53:38.892Z,29.64
2022-08-25T12:56:05.505Z,30.10
2022-08-25T12:58:59.883Z,29.44
2022-08-25T13:01:36.728Z,29.25
2022-08-25T13:04:22.705Z,28.86
2022-08-25T13:07:23.196Z,29.46
2022-08-25T13:10:15.850Z,30.31
2022-08-25T13:13:06.192Z,30.94
2022-08-25T13:15:41.096Z,31.95
2022-08-25T13:18:27.665Z,32.10
2022-08-25T13:21:29.111Z,32.37
2022-08-25T13:24:01.375Z,32.49
2022-08-25T13:26:48.440Z,33.23
2022-08-25T13:29:26.295Z,33.42
2022-08-25T13:31:59.926Z,33.87
2022-08-25T13:34:34.744Z,33.65
2022-08-25T13:37:29.767Z,33.92
2022-08-25T13:40:17.926Z,33.50
2022-08-25T13:42:54.403Z,33.85
2022-08-25T13:45:29.997Z,34.30
2022-08-25T13:47:59.423Z,34.09
2022-08-25T13:50:26.333Z,34.85
2022-08-25T13:52:56.149Z,35.69
2022-08-25T13:55:27.588Z,35.23
2022-08-25T13:57:59.430Z,35.55
2022-08-25T14:00:32.433Z,35.66
2022-08-25T14:03:02.151Z,35.44
2022-08-25T14:05:42.720Z,35.84
2022-08-25T14:08:31.966Z,35.71
2022-08-25T14:11:29.711Z,35.51
2022-08-25T14:14:12.623Z,35.37
2022-08-25T14:16:47.305Z,35.76
2022-08-25T14:19:21.509Z,35.77
2022-08-25T14:21:49.704Z,36.35
2022-08-25T14:24:23.964Z,36.37
2022-08-25T14:26:54.155Z,36.56
2022-08-25T14:29:22.303Z,36.76
2022-08-25T14:31:50.024Z,36.68
2022-08-25T14:34:21.541Z,36.48
2022-08-25T14:36:48.956Z,36.61
2022-08-25T14:39:16.163Z,36.26
2022-08-25T14:41:47.420Z,36.23
2022-08-25T14:44:20.273Z,36.31
2022-08-25T14:46:52.798Z,36.61
2022-08-25T14:49:25.434Z,36.56
2022-08-25T14:51:52.319Z,36.84
2022-08-25T14:54:25.975Z,36.51
2022-08-25T14:56:53.615Z,36.24
2022-08-25T14:59:20.356Z,36.50
2022-08-25T15:01:47.542Z,37.21
2022-08-25T15:04:23.436Z,36.59
2022-08-25T15:06:56.304Z,36.65
2022-08-25T15:09:23.252Z,36.75
2022-08-25T15:11:54.593Z,36.71
2022-08-25T15:14:28.909Z,37.02
2022-08-25T15:16:59.991Z,37.66
2022-08-25T15:19:27.571Z,37.68
2022-08-25T15:21:58.248Z,37.79
2022-08-25T15:24:27.339Z,37.69
2022-08-25T15:27:03.955Z,37.62
2022-08-25T15:29:34.773Z,37.48
2022-08-25T15:32:05.236Z,37.73
2022-08-25T15:34:32.260Z,38.00
2022-08-25T15:37:07.806Z,38.24
2022-08-25T15:39:35.197Z,38.50
2022-08-25T15:42:02.656Z,38.02
2022-08-25T15:44:33.861Z,38.12
2022-08-25T15:47:02.931Z,38.16
2022-08-25T15:49:31.403Z,38.31
2022-08-25T15:51:58.351Z,38.65
2022-08-25T15:54:26.802Z,37.85
2022-08-25T15:56:55.041Z,38.02
2022-08-25T15:59:21.898Z,38.05
2022-08-25T16:01:48.928Z,38.41
2022-08-25T16:04:15.791Z,38.01
2022-08-25T16:06:44.601Z,38.57
2022-08-25T16:09:12.059Z,37.98
2022-08-25T16:11:39.047Z,38.14
2022-08-25T16:14:06.165Z,38.04
2022-08-25T16:16:33.369Z,38.04
2022-08-25T16:19:00.532Z,37.81
2022-08-25T16:21:31.176Z,37.62
2022-08-25T16:24:04.411Z,38.06
2022-08-25T16:26:36.438Z,38.43
2022-08-25T16:29:06.430Z,38.51
2022-08-25T16:31:33.426Z,37.63
2022-08-25T16:34:01.572Z,37.54
2022-08-25T16:36:28.551Z,37.31
2022-08-25T16:38:57.453Z,37.33
2022-08-25T16:41:34.114Z,37.69
2022-08-25T16:44:10.983Z,37.58
2022-08-25T16:46:40.638Z,37.75
2022-08-25T16:49:07.833Z,37.79
2022-08-25T16:51:34.575Z,37.83
2022-08-25T16:54:22.256Z,38.09
2022-08-25T16:56:54.895Z,37.87
2022-08-25T16:59:22.266Z,38.03
2022-08-25T17:01:50.804Z,38.46
2022-08-25T17:04:17.574Z,38.33
2022-08-25T17:06:51.819Z,38.44
2022-08-25T17:09:23.809Z,38.62
2022-08-25T17:11:54.284Z,38.71
2022-08-25T17:14:21.992Z,38.47
2022-08-25T17:16:51.173Z,38.44
2022-08-25T17:19:18.632Z,39.19
2022-08-25T17:21:49.984Z,39.25
2022-08-25T17:24:17.209Z,39.31
2022-08-25T17:26:49.866Z,39.81
2022-08-25T17:29:19.601Z,39.80
2022-08-25T17:31:48.402Z,40.24
2022-08-25T17:34:16.141Z,40.85
2022-08-25T17:36:44.054Z,41.12
2022-08-25T17:39:13.075Z,41.46
2022-08-25T17:41:42.035Z,41.63
2022-08-25T17:44:08.671Z,41.66
2022-08-25T17:46:38.452Z,41.68
2022-08-25T17:49:09.112Z,41.74
2022-08-25T17:51:36.551Z,41.94
2022-08-25T17:54:03.144Z,42.11
2022-08-25T17:56:30.160Z,41.98
2022-08-25T17:58:57.233Z,42.15
2022-08-25T18:01:30.583Z,43.05
2022-08-25T18:03:59.242Z,42.71
2022-08-25T18:06:29.571Z,42.85
2022-08-25T18:08:59.977Z,42.78
2022-08-25T18:11:27.988Z,42.96
2022-08-25T18:13:55.036Z,42.82
2022-08-25T18:16:22.708Z,43.12
2022-08-25T18:18:49.435Z,42.99
2022-08-25T18:21:19.198Z,43.44
2022-08-25T18:23:46.656Z,43.54
2022-08-25T18:26:15.327Z,43.52
2022-08-25T18:28:43.995Z,43.77
2022-08-25T18:31:13.196Z,43.97
2022-08-25T18:33:44.612Z,43.85
2022-08-25T18:36:12.533Z,43.50
2022-08-25T18:38:59.938Z,43.64
2022-08-25T18:41:32.778Z,43.44
2022-08-25T18:43:59.330Z,43.52
2022-08-25T18:46:26.097Z,44.27
2022-08-25T18:48:53.276Z,44.13
2022-08-25T18:51:23.266Z,44.07
2022-08-25T18:53:54.725Z,44.34
2022-08-25T18:56:26.740Z,44.44
2022-08-25T18:58:53.403Z,45.08
2022-08-25T19:01:21.350Z,44.74
2022-08-25T19:03:48.363Z,44.76
2022-08-25T19:06:15.653Z,44.76
2022-08-25T19:08:42.371Z,44.95
2022-08-25T19:11:10.113Z,44.77
2022-08-25T19:13:37.623Z,44.87
2022-08-25T19:16:30.050Z,45.13
2022-08-25T19:18:57.054Z,45.11
2022-08-25T19:21:25.244Z,45.46
2022-08-25T19:23:52.337Z,45.44
2022-08-25T19:26:19.549Z,45.28
2022-08-25T19:28:48.857Z,45.31
2022-08-25T19:31:20.353Z,45.71
2022-08-25T19:33:49.218Z,45.65
2022-08-25T19:36:18.494Z,45.88
2022-08-25T19:38:48.455Z,46.06
2022-08-25T19:41:19.416Z,46.02
2022-08-25T19:43:55.226Z,46.39
2022-08-25T19:46:23.361Z,46.45
2022-08-25T19:48:50.471Z,46.53
2022-08-25T19:51:19.395Z,46.83
2022-08-25T19:53:51.171Z,46.76
2022-08-25T19:56:20.752Z,46.73
2022-08-25T19:58:47.834Z,46.41
2022-08-25T20:01:18.365Z,46.94
2022-08-25T20:03:45.280Z,47.10
2022-08-25T20:06:12.349Z,46.96
2022-08-25T20:08:43.180Z,47.00
2022-08-25T20:11:10.814Z,46.76
2022-08-25T20:13:37.551Z,46.94
2022-08-25T20:16:05.595Z,47.06
2022-08-25T20:18:32.562Z,47.29
2022-08-25T20:20:59.297Z,47.19
2022-08-25T20:23:44.582Z,47.40
2022-08-25T20:26:11.312Z,47.82
2022-08-25T20:28:42.241Z,47.61
2022-08-25T20:31:09.407Z,47.70
2022-08-25T20:33:36.240Z,47.69
2022-08-25T20:36:04.839Z,47.69
2022-08-25T20:38:32.114Z,47.65
2022-08-25T20:41:00.751Z,48.08
2022-08-25T20:43:30.808Z,47.89
2022-08-25T20:46:01.798Z,48.12
2022-08-25T20:48:28.472Z,48.18
2022-08-25T20:50:57.774Z,48.08
2022-08-25T20:53:25.769Z,48.34
2022-08-25T20:55:56.185Z,48.57
2022-08-25T20:58:26.566Z,48.26
2022-08-25T21:00:53.992Z,48.35
2022-08-25T21:03:21.016Z,48.65
2022-08-25T21:05:54.091Z,48.51
2022-08-25T21:08:21.272Z,48.83
2022-08-25T21:10:51.885Z,49.38
2022-08-25T21:13:21.267Z,49.30
2022-08-25T21:15:50.429Z,49.12
2022-08-25T21:18:17.059Z,49.72
2022-08-25T21:20:47.126Z,49.95
2022-08-25T21:23:14.887Z,50.05
2022-08-25T21:25:44.607Z,50.33
2022-08-25T21:28:11.584Z,50.62
2022-08-25T21:30:44.715Z,50.83
2022-08-25T21:33:16.450Z,50.68
2022-08-25T21:35:43.393Z,50.01
2022-08-25T21:38:10.031Z,50.19
2022-08-25T21:40:37.229Z,50.32
2022-08-25T21:43:07.379Z,50.64
2022-08-25T21:45:46.141Z,50.86
2022-08-25T21:48:13.758Z,50.45
2022-08-25T21:50:41.134Z,50.63
2022-08-25T21:53:09.657Z,50.63
2022-08-25T21:55:41.899Z,51.02
2022-08-25T21:58:08.688Z,50.62
2022-08-25T22:00:36.084Z,51.12
2022-08-25T22:03:02.774Z,51.52
2022-08-25T22:05:29.456Z,51.38
2022-08-25T22:07:56.037Z,51.37
2022-08-25T22:10:22.775Z,51.69
2022-08-25T22:13:01.433Z,52.02
2022-08-25T22:15:29.450Z,51.96
2022-08-25T22:17:56.040Z,52.21
2022-08-25T22:20:25.094Z,52.11
2022-08-25T22:22:56.500Z,52.21
2022-08-25T22:25:23.679Z,52.43
2022-08-25T22:27:56.430Z,52.43
2022-08-25T22:30:29.668Z,52.39
2022-08-25T22:33:00.483Z,52.72
2022-08-25T22:35:28.086Z,52.68
2022-08-25T22:37:54.728Z,52.70
2022-08-25T22:40:21.450Z,52.87
2022-08-25T22:42:48.543Z,52.63
2022-08-25T22:45:15.515Z,52.48
2022-08-25T22:47:42.313Z,51.45
2022-08-25T22:50:09.396Z,51.77
2022-08-25T22:52:36.114Z,51.82
2022-08-25T22:55:03.130Z,51.81
2022-08-25T22:57:29.738Z,51.33
2022-08-25T22:59:56.740Z,51.23
2022-08-25T23:02:23.433Z,51.45
2022-08-25T23:04:50.084Z,51.68
2022-08-25T23:07:16.942Z,51.49
2022-08-25T23:09:44.584Z,51.75
2022-08-25T23:12:11.725Z,51.85
2022-08-25T23:14:42.259Z,52.22
2022-08-25T23:17:11.518Z,52.14
2022-08-25T23:19:39.037Z,51.99
2022-08-25T23:22:12.613Z,51.82
2022-08-25T23:24:48.985Z,52.06
2022-08-25T23:27:19.835Z,51.87
2022-08-25T23:29:48.996Z,52.05
2022-08-25T23:32:17.848Z,52.20
2022-08-25T23:34:46.773Z,52.06
2022-08-25T23:37:14.365Z,52.07
2022-08-25T23:39:41.628Z,52.31
2022-08-25T23:42:08.885Z,52.63
2022-08-25T23:44:36.786Z,52.44
2022-08-25T23:47:06.753Z,52.32
2022-08-25T23:49:33.757Z,52.05
2022-08-25T23:52:01.248Z,52.12
2022-08-25T23:54:30.996Z,52.49
2022-08-25T23:56:58.474Z,52.09
2022-08-25T23:59:25.420Z,52.39
